Time;durP1;ratioP1;P1;durP2;ratioP2;P2;SDS_P1;SDS_P2;PMS_P1;PMS_P2;Temp;Humidity;BMP_temperature;BMP_pressure;BME280_temperature;BME280_humidity;BME280_pressure;Samples;Min_cycle;Max_cycle;Signal;HPM_P1;HPM_P2
2024/02/01 00:01:00;;;;;;;19.95;14.60;;;3.70;1.00;;;;;;5065656;28;20433;-73
2024/02/01 00:03:25;;;;;;;20.13;15.02;;;3.70;1.00;;;;;;5060021;28;20059;-73
2024/02/01 00:05:51;;;;;;;20.35;14.93;;;3.70;1.00;;;;;;5063295;28;20104;-73
2024/02/01 00:08:17;;;;;;;20.60;14.80;;;3.70;1.00;;;;;;5062334;28;20479;-73
2024/02/01 00:10:42;;;;;;;14.75;12.20;;;3.60;1.00;;;;;;5064446;28;20016;-73
2024/02/01 00:13:09;;;;;;;17.67;14.05;;;3.70;1.00;;;;;;5061341;28;20045;-73
2024/02/01 00:15:35;;;;;;;17.27;13.30;;;3.60;1.00;;;;;;5063750;28;20107;-73
2024/02/01 00:18:01;;;;;;;19.08;13.77;;;3.60;1.00;;;;;;5059319;28;20454;-73
2024/02/01 00:20:26;;;;;;;15.60;13.20;;;3.60;1.00;;;;;;5061724;28;20037;-73
2024/02/01 00:22:52;;;;;;;15.70;12.10;;;3.60;1.00;;;;;;5063656;28;20029;-73
2024/02/01 00:25:18;;;;;;;16.65;12.77;;;3.70;1.00;;;;;;5059218;28;20064;-73
2024/02/01 00:27:44;;;;;;;18.70;13.43;;;3.70;1.00;;;;;;5059742;28;20024;-73
2024/02/01 00:30:10;;;;;;;17.88;13.43;;;3.70;1.00;;;;;;5057978;28;20052;-73
2024/02/01 00:32:35;;;;;;;17.42;14.48;;;3.70;1.00;;;;;;5058478;28;20391;-73
2024/02/01 00:35:01;;;;;;;19.10;14.98;;;3.70;1.00;;;;;;5058605;28;20032;-73
2024/02/01 00:37:27;;;;;;;22.35;16.10;;;3.70;1.00;;;;;;5057611;28;20098;-73
2024/02/01 00:39:52;;;;;;;17.60;13.90;;;3.60;1.00;;;;;;5058527;28;20029;-73
2024/02/01 00:42:18;;;;;;;17.85;12.75;;;3.60;1.00;;;;;;5056779;28;20589;-73
2024/02/01 00:44:44;;;;;;;14.02;11.77;;;3.60;1.00;;;;;;5061901;28;20048;-77
2024/02/01 00:47:09;;;;;;;15.30;11.63;;;3.70;1.00;;;;;;5061576;28;20037;-77
2024/02/01 00:49:35;;;;;;;12.27;10.75;;;3.70;1.00;;;;;;5062714;28;20029;-77
2024/02/01 00:52:02;;;;;;;13.60;10.38;;;3.70;1.00;;;;;;5060395;28;20031;-77
2024/02/01 00:54:29;;;;;;;15.63;10.43;;;3.70;1.00;;;;;;5064383;28;20052;-76
2024/02/01 00:56:55;;;;;;;11.13;9.82;;;3.70;1.00;;;;;;5062983;28;20470;-77
2024/02/01 00:59:21;;;;;;;10.48;9.40;;;3.70;1.00;;;;;;5061356;28;20039;-77
2024/02/01 01:01:47;;;;;;;13.20;10.35;;;3.70;1.00;;;;;;5057610;28;20040;-77
2024/02/01 01:04:15;;;;;;;13.40;9.35;;;3.70;1.00;;;;;;5057156;28;20029;-77
2024/02/01 01:06:44;;;;;;;18.67;10.60;;;3.70;1.00;;;;;;5057461;28;20440;-77
2024/02/01 01:09:10;;;;;;;13.48;11.32;;;3.70;1.00;;;;;;5059253;28;20020;-77
2024/02/01 01:11:37;;;;;;;16.10;11.80;;;3.70;1.00;;;;;;5055787;28;20027;-77
2024/02/01 01:14:03;;;;;;;14.23;10.60;;;3.70;1.00;;;;;;5056595;28;20017;-77
2024/02/01 01:16:28;;;;;;;15.38;12.90;;;3.60;1.00;;;;;;5057806;28;20032;-77
2024/02/01 01:18:54;;;;;;;14.52;11.60;;;3.50;1.00;;;;;;5058487;28;20620;-77
2024/02/01 01:21:20;;;;;;;19.02;14.07;;;3.40;1.00;;;;;;5059902;28;20205;-77
2024/02/01 01:23:45;;;;;;;15.75;12.93;;;3.40;1.00;;;;;;5062310;28;20390;-77
2024/02/01 01:26:11;;;;;;;16.38;13.82;;;3.30;1.00;;;;;;5061557;28;20028;-74
2024/02/01 01:28:37;;;;;;;20.25;14.30;;;3.30;1.00;;;;;;5060381;28;20103;-73
2024/02/01 01:31:03;;;;;;;21.50;14.60;;;3.30;1.00;;;;;;5061830;28;20104;-73
2024/02/01 01:33:29;;;;;;;17.63;14.85;;;3.30;1.00;;;;;;5060918;28;20017;-73
2024/02/01 01:35:55;;;;;;;20.33;14.38;;;3.20;1.00;;;;;;5062520;28;20028;-73
2024/02/01 01:38:21;;;;;;;17.17;14.20;;;3.20;1.00;;;;;;5060145;28;20052;-73
2024/02/01 01:40:48;;;;;;;26.27;16.42;;;3.20;1.00;;;;;;5058222;28;20091;-73
2024/02/01 01:43:14;;;;;;;23.73;16.85;;;3.20;1.00;;;;;;5063093;28;20078;-73
2024/02/01 01:45:39;;;;;;;24.45;17.33;;;3.10;1.00;;;;;;5059755;28;20499;-73
2024/02/01 01:48:06;;;;;;;18.80;12.77;;;3.10;3.00;;;;;;5059317;28;20384;-73
2024/02/01 01:50:33;;;;;;;12.77;11.10;;;3.10;1.00;;;;;;5062252;28;20474;-73
2024/02/01 01:53:00;;;;;;;19.50;14.75;;;3.20;1.00;;;;;;5061967;28;20356;-73
2024/02/01 01:55:28;;;;;;;18.08;15.23;;;3.20;1.00;;;;;;5059387;28;20490;-73
2024/02/01 01:57:54;;;;;;;19.98;14.82;;;3.20;1.00;;;;;;5054733;28;20116;-73
2024/02/01 02:00:21;;;;;;;23.27;16.70;;;3.20;1.00;;;;;;5057006;28;20107;-77
2024/02/01 02:02:47;;;;;;;20.27;16.25;;;3.20;1.00;;;;;;5055194;28;20055;-77
2024/02/01 02:05:13;;;;;;;23.55;16.52;;;3.20;1.00;;;;;;5058887;28;20023;-77
2024/02/01 02:07:39;;;;;;;20.23;16.45;;;3.20;1.00;;;;;;5055611;28;20131;-77
2024/02/01 02:10:06;;;;;;;20.17;15.98;;;3.10;1.00;;;;;;5056808;28;20045;-77
2024/02/01 02:12:32;;;;;;;22.88;16.17;;;3.00;3.60;;;;;;5056178;28;20100;-77
2024/02/01 02:14:59;;;;;;;22.35;17.80;;;3.00;14.00;;;;;;5065553;28;20104;-76
2024/02/01 02:17:28;;;;;;;20.60;16.27;;;2.80;19.50;;;;;;5064724;28;20032;-76
2024/02/01 02:20:02;;;;;;;23.48;17.08;;;2.80;22.80;;;;;;5063130;28;20021;-77
2024/02/01 02:22:29;;;;;;;25.35;17.27;;;2.90;25.80;;;;;;5067045;28;20099;-77
2024/02/01 02:24:56;;;;;;;23.17;17.75;;;2.90;27.50;;;;;;5062350;28;20025;-77
2024/02/01 02:27:21;;;;;;;26.70;19.00;;;2.90;34.40;;;;;;5066312;28;20074;-77
2024/02/01 02:29:47;;;;;;;22.08;17.13;;;2.80;33.30;;;;;;5063979;28;20021;-77
2024/02/01 02:32:14;;;;;;;23.00;17.67;;;2.90;30.30;;;;;;5064426;28;20066;-77
2024/02/01 02:34:40;;;;;;;21.95;17.30;;;2.90;31.80;;;;;;5064498;28;20032;-77
2024/02/01 02:37:08;;;;;;;20.88;17.85;;;2.90;19.90;;;;;;5065056;28;20035;-77
2024/02/01 02:39:36;;;;;;;21.85;16.55;;;2.80;7.10;;;;;;5065615;28;20694;-77
2024/02/01 02:42:02;;;;;;;19.95;13.75;;;2.70;27.50;;;;;;5063126;28;20032;-77
2024/02/01 02:44:27;;;;;;;13.10;11.80;;;2.70;34.90;;;;;;5061706;28;20196;-77
2024/02/01 02:46:53;;;;;;;20.98;14.38;;;2.90;22.20;;;;;;5066569;28;20085;-77
2024/02/01 02:49:19;;;;;;;17.50;13.32;;;2.80;1.00;;;;;;5061506;28;20025;-77
2024/02/01 02:51:44;;;;;;;18.40;12.32;;;2.80;3.50;;;;;;5066407;28;20017;-77
2024/02/01 02:54:10;;;;;;;14.95;11.30;;;2.70;7.60;;;;;;5064067;28;20020;-77
2024/02/01 02:56:36;;;;;;;11.85;10.27;;;2.70;6.70;;;;;;5061613;28;20585;-77
2024/02/01 02:59:02;;;;;;;15.70;10.88;;;2.80;12.00;;;;;;5058775;28;20025;-77
2024/02/01 03:01:27;;;;;;;18.85;12.30;;;2.70;2.30;;;;;;5060673;28;20086;-77
2024/02/01 03:03:53;;;;;;;15.90;11.82;;;2.70;11.60;;;;;;5055758;28;20024;-77
2024/02/01 03:06:19;;;;;;;14.05;11.30;;;2.70;24.00;;;;;;5060100;28;20452;-77
2024/02/01 03:08:45;;;;;;;13.00;11.15;;;2.70;18.90;;;;;;5059340;28;20436;-76
2024/02/01 03:11:11;;;;;;;13.40;10.00;;;2.70;12.80;;;;;;5061398;28;20025;-77
2024/02/01 03:13:41;;;;;;;12.07;10.27;;;2.60;8.00;;;;;;5060595;28;20482;-77
2024/02/01 03:16:17;;;;;;;17.97;11.77;;;2.60;11.20;;;;;;5069002;28;20021;-77
2024/02/01 03:18:44;;;;;;;16.70;12.53;;;2.60;12.70;;;;;;5062004;28;20021;-77
2024/02/01 03:21:14;;;;;;;19.43;15.47;;;2.60;13.40;;;;;;5063127;28;20454;-73
2024/02/01 03:23:45;;;;;;;16.90;13.95;;;2.60;28.50;;;;;;5063300;28;20032;-73
2024/02/01 03:26:11;;;;;;;16.80;12.43;;;2.60;27.00;;;;;;5063395;28;20433;-73
2024/02/01 03:28:58;;;;;;;14.75;11.93;;;2.70;22.90;;;;;;5061031;28;20045;-73
2024/02/01 03:31:33;;;;;;;16.00;12.68;;;2.70;16.20;;;;;;5061009;28;20021;-73
2024/02/01 03:34:10;;;;;;;17.47;11.43;;;2.70;15.60;;;;;;5059538;28;20012;-73
2024/02/01 03:36:37;;;;;;;17.30;11.97;;;2.80;10.20;;;;;;5059079;28;20029;-73
2024/02/01 03:39:03;;;;;;;17.42;13.23;;;2.60;1.00;;;;;;5060710;28;20034;-73
2024/02/01 03:41:29;;;;;;;12.43;11.13;;;2.60;15.20;;;;;;5057360;28;20028;-73
2024/02/01 03:43:54;;;;;;;11.82;10.10;;;2.60;17.60;;;;;;5061410;28;20048;-73
2024/02/01 03:46:22;;;;;;;11.87;9.73;;;2.60;8.40;;;;;;5057343;28;20033;-73
2024/02/01 03:48:48;;;;;;;12.57;10.10;;;2.50;4.50;;;;;;5063642;28;20044;-73
2024/02/01 03:51:15;;;;;;;16.23;12.70;;;2.50;17.20;;;;;;5057572;28;20415;-74
2024/02/01 03:53:41;;;;;;;21.80;15.05;;;2.50;22.50;;;;;;5061381;28;20027;-73
2024/02/01 03:56:07;;;;;;;20.83;15.47;;;2.50;27.60;;;;;;5065504;28;20024;-73
2024/02/01 03:58:33;;;;;;;20.10;15.43;;;2.60;36.10;;;;;;5065426;28;20532;-73
2024/02/01 04:01:01;;;;;;;19.13;15.07;;;2.50;31.90;;;;;;5061366;28;20490;-73
2024/02/01 04:03:27;;;;;;;21.15;17.02;;;2.50;28.20;;;;;;5062974;28;20028;-74
2024/02/01 04:05:53;;;;;;;17.70;12.65;;;2.50;25.30;;;;;;5056503;28;20033;-73
2024/02/01 04:08:19;;;;;;;19.50;14.95;;;2.50;21.50;;;;;;5060921;28;20024;-73
2024/02/01 04:10:45;;;;;;;21.70;17.97;;;2.50;22.80;;;;;;5056698;28;20025;-73
2024/02/01 04:13:12;;;;;;;27.33;19.03;;;2.40;27.90;;;;;;5060774;28;20107;-74
2024/02/01 04:15:38;;;;;;;26.58;19.27;;;2.40;44.50;;;;;;5056164;28;20025;-73
2024/02/01 04:18:05;;;;;;;24.87;19.40;;;2.40;39.30;;;;;;5058381;28;20024;-72
2024/02/01 04:20:31;;;;;;;19.60;15.20;;;2.40;29.70;;;;;;5060072;28;20068;-73
2024/02/01 04:22:57;;;;;;;18.47;15.80;;;2.40;43.50;;;;;;5056634;28;20056;-73
2024/02/01 04:25:24;;;;;;;21.57;16.73;;;2.40;39.00;;;;;;5059247;28;20074;-73
2024/02/01 04:27:54;;;;;;;23.90;18.73;;;2.40;31.40;;;;;;5056576;28;20124;-73
2024/02/01 04:30:20;;;;;;;25.17;19.13;;;2.40;27.60;;;;;;5059866;28;20098;-73
2024/02/01 04:32:47;;;;;;;20.57;17.03;;;2.40;32.30;;;;;;5055240;28;20025;-73
2024/02/01 04:35:14;;;;;;;23.77;17.10;;;2.40;25.90;;;;;;5058854;28;20398;-73
2024/02/01 04:37:40;;;;;;;16.27;12.77;;;2.20;16.30;;;;;;5057994;28;20029;-73
2024/02/01 04:40:11;;;;;;;16.30;11.43;;;2.20;39.10;;;;;;5063253;28;20028;-73
2024/02/01 04:42:38;;;;;;;16.43;11.33;;;2.30;30.30;;;;;;5061525;28;20578;-73
2024/02/01 04:45:04;;;;;;;13.57;11.27;;;2.30;27.60;;;;;;5064360;28;20044;-73
2024/02/01 04:47:32;;;;;;;12.17;8.60;;;2.30;29.50;;;;;;5061002;28;20037;-73
2024/02/01 04:49:58;;;;;;;9.37;7.37;;;2.20;27.30;;;;;;5062923;28;20052;-73
2024/02/01 04:52:24;;;;;;;7.70;7.00;;;2.30;29.70;;;;;;5059125;28;20410;-73
2024/02/01 04:54:49;;;;;;;11.60;7.87;;;2.20;21.40;;;;;;5064011;28;20025;-74
2024/02/01 04:57:15;;;;;;;10.43;7.23;;;2.10;25.80;;;;;;5059539;28;20078;-73
2024/02/01 04:59:45;;;;;;;7.70;6.97;;;2.10;31.80;;;;;;5063360;28;20371;-73
2024/02/01 05:02:14;;;;;;;7.53;6.17;;;2.10;33.80;;;;;;5061689;28;20410;-73
2024/02/01 05:04:43;;;;;;;7.97;7.17;;;2.20;32.50;;;;;;5061510;28;20031;-73
2024/02/01 05:07:09;;;;;;;8.67;7.17;;;2.30;12.10;;;;;;5052508;28;20025;-73
2024/02/01 05:09:36;;;;;;;12.40;9.03;;;2.20;1.00;;;;;;5059173;28;20382;-72
2024/02/01 05:12:03;;;;;;;8.33;7.33;;;2.10;7.60;;;;;;5059790;28;20021;-73
2024/02/01 05:14:28;;;;;;;8.57;7.43;;;2.20;19.20;;;;;;5058767;28;20020;-73
2024/02/01 05:16:54;;;;;;;8.73;7.87;;;2.20;15.60;;;;;;5056794;28;20150;-73
2024/02/01 05:19:20;;;;;;;9.77;8.00;;;2.20;14.70;;;;;;5055520;28;20021;-73
2024/02/01 05:21:47;;;;;;;11.67;8.77;;;2.10;13.80;;;;;;5057523;28;20441;-73
2024/02/01 05:24:13;;;;;;;11.23;9.70;;;2.10;8.50;;;;;;5056298;28;20256;-73
2024/02/01 05:26:40;;;;;;;10.83;9.53;;;2.10;27.20;;;;;;5059580;28;20020;-77
2024/02/01 05:29:09;;;;;;;11.13;9.60;;;2.10;29.90;;;;;;5061145;28;20024;-77
2024/02/01 05:31:37;;;;;;;13.70;10.33;;;2.10;25.90;;;;;;5059115;28;20033;-77
2024/02/01 05:34:03;;;;;;;16.83;10.97;;;2.10;20.00;;;;;;5061896;28;20382;-76
2024/02/01 05:36:29;;;;;;;11.83;10.10;;;2.00;26.00;;;;;;5058942;28;20032;-77
2024/02/01 05:38:55;;;;;;;16.07;9.53;;;2.00;37.10;;;;;;5063596;28;20021;-77
2024/02/01 05:41:21;;;;;;;11.30;9.23;;;2.10;34.50;;;;;;5062449;28;20028;-77
2024/02/01 05:43:46;;;;;;;11.67;9.43;;;2.20;23.80;;;;;;5060640;28;20048;-76
2024/02/01 05:46:15;;;;;;;14.53;10.20;;;2.20;25.70;;;;;;5061618;28;20056;-77
2024/02/01 05:48:43;;;;;;;11.70;8.87;;;2.20;15.60;;;;;;5061585;28;20027;-76
2024/02/01 05:51:09;;;;;;;10.37;9.33;;;2.20;20.70;;;;;;5060689;28;20117;-76
2024/02/01 05:53:35;;;;;;;11.83;9.33;;;2.20;22.30;;;;;;5062432;28;20028;-77
2024/02/01 05:56:00;;;;;;;11.00;8.40;;;2.20;19.60;;;;;;5059776;28;20029;-77
2024/02/01 05:58:29;;;;;;;10.47;8.87;;;2.20;24.70;;;;;;5063294;28;20021;-76
2024/02/01 06:00:57;;;;;;;11.13;8.23;;;2.20;25.00;;;;;;5059891;28;20229;-77
2024/02/01 06:03:23;;;;;;;10.97;8.27;;;2.30;21.60;;;;;;5061836;28;20036;-77
2024/02/01 06:05:49;;;;;;;8.57;7.67;;;2.40;14.40;;;;;;5072407;28;20453;-77
2024/02/01 06:08:24;;;;;;;12.00;8.27;;;2.50;11.70;;;;;;5053764;28;20029;-77
2024/02/01 06:10:50;;;;;;;15.20;7.97;;;2.60;2.90;;;;;;5063459;28;20025;-77
2024/02/01 06:13:16;;;;;;;10.70;7.20;;;2.70;1.00;;;;;;5070664;28;20359;-77
2024/02/01 06:15:42;;;;;;;11.50;7.40;;;2.70;1.00;;;;;;5070342;28;20024;-77
2024/02/01 06:18:09;;;;;;;9.30;8.23;;;2.70;1.00;;;;;;5066491;28;20028;-77
2024/02/01 06:20:35;;;;;;;7.87;6.53;;;2.70;1.00;;;;;;5071670;28;20079;-77
2024/02/01 06:23:02;;;;;;;7.33;5.90;;;2.60;1.00;;;;;;5071793;28;20052;-77
2024/02/01 06:25:27;;;;;;;7.07;6.27;;;2.70;1.00;;;;;;5069377;28;20024;-77
2024/02/01 06:27:53;;;;;;;8.03;6.73;;;2.60;1.00;;;;;;5071922;28;20023;-77
2024/02/01 06:30:20;;;;;;;10.70;6.73;;;2.60;1.00;;;;;;5071975;28;20481;-77
2024/02/01 06:32:46;;;;;;;7.17;6.50;;;2.60;1.00;;;;;;5058983;28;20391;-77
2024/02/01 06:35:16;;;;;;;13.50;7.13;;;2.60;1.00;;;;;;5070807;28;20021;-77
2024/02/01 06:37:45;;;;;;;9.87;6.87;;;2.60;1.00;;;;;;5060157;28;20032;-77
2024/02/01 06:40:26;;;;;;;9.93;7.00;;;2.50;1.00;;;;;;5052348;28;20033;-77
2024/02/01 06:43:08;;;;;;;11.33;7.30;;;2.50;1.00;;;;;;5052402;28;20109;-77
2024/02/01 06:45:44;;;;;;;8.90;7.97;;;2.50;1.00;;;;;;5052000;28;20040;-77
2024/02/01 06:48:11;;;;;;;10.97;6.83;;;2.50;9.50;;;;;;5061550;28;20054;-73
2024/02/01 06:50:57;;;;;;;9.03;6.10;;;2.40;11.90;;;;;;5063329;28;20021;-73
2024/02/01 06:53:32;;;;;;;11.20;6.40;;;2.60;9.20;;;;;;5065793;28;20135;-74
2024/02/01 06:56:00;;;;;;;10.50;5.33;;;2.70;2.60;;;;;;5057721;28;20032;-73
2024/02/01 06:59:21;;;;;;;10.30;5.17;;;2.80;1.00;;;;;;5061579;28;20056;-73
2024/02/01 07:01:32;;;;;;;14.40;5.60;;;2.90;1.00;;;;;;5060070;28;20052;-73
2024/02/01 07:04:13;;;;;;;10.17;4.13;;;3.00;1.00;;;;;;5061828;28;20024;-73
2024/02/01 07:06:53;;;;;;;9.80;4.70;;;3.10;1.00;;;;;;5067958;28;20056;-73
2024/02/01 07:09:28;;;;;;;25.37;5.30;;;3.20;1.00;;;;;;5071154;28;20048;-73
2024/02/01 07:12:13;;;;;;;21.30;4.73;;;3.20;1.00;;;;;;5058860;28;20339;-74
2024/02/01 07:14:41;;;;;;;14.23;4.97;;;3.20;1.00;;;;;;5061917;28;20386;-73
2024/02/01 07:19:56;;;;;;;10.55;4.57;;;3.40;1.00;;;;;;5062393;28;20047;-73
2024/02/01 07:22:35;;;;;;;8.07;4.27;;;3.40;1.00;;;;;;5062483;28;20044;-73
2024/02/01 07:25:11;;;;;;;7.05;4.18;;;3.50;1.00;;;;;;5062794;28;20398;-73
2024/02/01 07:57:51;;;;;;;14.38;7.40;;;3.80;6.10;;;;;;5061755;28;20028;-77
2024/02/01 08:00:19;;;;;;;11.35;7.50;;;3.80;5.40;;;;;;5065727;28;20082;-77
2024/02/01 08:03:00;;;;;;;10.23;7.10;;;3.80;4.50;;;;;;5065044;28;20111;-77
2024/02/01 08:08:15;;;;;;;14.77;8.82;;;3.90;12.30;;;;;;5065453;28;20039;-77
2024/02/01 08:10:40;;;;;;;17.27;10.93;;;4.00;18.20;;;;;;5061541;28;20025;-77
2024/02/01 08:13:07;;;;;;;27.63;13.68;;;4.00;24.40;;;;;;5060666;28;20044;-77
2024/02/01 08:15:37;;;;;;;33.63;11.35;;;4.10;17.70;;;;;;5064105;28;20020;-77
2024/02/01 08:18:08;;;;;;;24.85;12.27;;;4.20;1.00;;;;;;5061208;28;20020;-77
2024/02/01 08:20:35;;;;;;;27.05;11.43;;;4.30;1.00;;;;;;5063727;28;20024;-77
2024/02/01 08:23:01;;;;;;;23.80;11.80;;;4.40;1.00;;;;;;5063693;28;20402;-76
2024/02/01 08:25:27;;;;;;;17.00;12.23;;;4.40;1.00;;;;;;5059562;28;20494;-77
2024/02/01 08:27:53;;;;;;;19.95;12.45;;;4.40;12.40;;;;;;5063545;28;20025;-76
2024/02/01 08:30:23;;;;;;;20.38;12.95;;;4.40;20.20;;;;;;5061279;28;20025;-77
2024/02/01 08:32:49;;;;;;;17.75;13.93;;;4.40;30.60;;;;;;5062102;28;20025;-77
2024/02/01 08:35:16;;;;;;;25.13;16.42;;;4.50;35.00;;;;;;5059680;28;20078;-74
2024/02/01 08:37:43;;;;;;;26.52;18.27;;;4.50;44.50;;;;;;5061465;28;20034;-74
2024/02/01 08:40:16;;;;;;;26.58;16.73;;;4.60;27.80;;;;;;5061942;28;20031;-73
2024/02/01 08:42:45;;;;;;;28.00;19.83;;;4.70;26.60;;;;;;5063074;28;20079;-73
2024/02/01 08:45:12;;;;;;;38.58;23.15;;;4.90;33.10;;;;;;5060837;28;20131;-73
2024/02/01 08:47:38;;;;;;;31.92;19.88;;;4.90;40.50;;;;;;5063415;28;20029;-73
2024/02/01 08:50:06;;;;;;;27.52;18.15;;;5.00;29.60;;;;;;5058961;28;20070;-73
2024/02/01 08:52:33;;;;;;;31.08;16.70;;;5.10;27.20;;;;;;5062183;28;20435;-73
2024/02/01 08:55:00;;;;;;;33.63;18.23;;;5.20;11.60;;;;;;5061747;28;20021;-73
2024/02/01 08:57:26;;;;;;;33.03;17.60;;;5.20;2.40;;;;;;5063133;28;20040;-73
2024/02/01 08:59:52;;;;;;;36.38;18.05;;;5.30;11.00;;;;;;5060845;28;20040;-73
2024/02/01 09:02:18;;;;;;;27.95;14.85;;;5.40;2.50;;;;;;5063779;28;20025;-73
2024/02/01 09:04:52;;;;;;;25.55;14.07;;;5.50;1.00;;;;;;5060224;28;20471;-73
2024/02/01 09:07:19;;;;;;;22.75;13.88;;;5.60;1.00;;;;;;5065004;28;20036;-73
2024/02/01 09:09:44;;;;;;;27.40;14.48;;;5.60;1.00;;;;;;5060909;28;20085;-73
2024/02/01 09:12:16;;;;;;;25.83;15.20;;;5.70;1.00;;;;;;5061691;28;20056;-74
2024/02/01 09:14:42;;;;;;;19.83;13.43;;;5.70;1.00;;;;;;5056906;28;20021;-73
2024/02/01 09:17:08;;;;;;;22.02;14.38;;;5.70;1.00;;;;;;5062208;28;20043;-73
2024/02/01 09:19:33;;;;;;;42.63;21.27;;;5.70;1.00;;;;;;5051579;28;20162;-73
2024/02/01 09:22:00;;;;;;;46.78;22.05;;;5.70;1.00;;;;;;5057583;28;20029;-73
2024/02/01 09:24:26;;;;;;;40.50;22.65;;;5.70;1.00;;;;;;5054400;28;20062;-73
2024/02/01 09:26:51;;;;;;;33.58;21.63;;;5.70;1.00;;;;;;5058405;28;20029;-73
2024/02/01 09:29:17;;;;;;;33.50;21.13;;;5.70;1.00;;;;;;5055395;28;20057;-73
2024/02/01 09:31:44;;;;;;;33.58;22.90;;;5.70;5.30;;;;;;5057972;28;20486;-73
2024/02/01 09:34:14;;;;;;;31.33;22.45;;;5.80;8.00;;;;;;5056607;28;20033;-73
2024/02/01 09:36:40;;;;;;;35.58;23.80;;;5.80;5.40;;;;;;5057057;28;20048;-73
2024/02/01 09:39:05;;;;;;;43.45;25.02;;;5.80;1.00;;;;;;5060777;28;20367;-76
2024/02/01 09:41:32;;;;;;;42.78;24.77;;;5.80;1.00;;;;;;5060405;28;20033;-76
2024/02/01 09:43:59;;;;;;;35.03;24.20;;;5.80;1.00;;;;;;5062844;28;20032;-76
2024/02/01 09:46:27;;;;;;;45.22;23.00;;;5.80;1.00;;;;;;5063527;28;20028;-76
2024/02/01 09:48:54;;;;;;;30.45;22.02;;;5.90;1.00;;;;;;5059351;28;20086;-77
2024/02/01 09:51:21;;;;;;;32.28;23.58;;;5.90;1.00;;;;;;5058096;28;20025;-77
2024/02/01 09:53:49;;;;;;;37.90;22.67;;;5.90;1.00;;;;;;5054584;28;20056;-76
2024/02/01 09:56:16;;;;;;;37.58;22.20;;;5.90;3.50;;;;;;5058639;28;20033;-77
2024/02/01 09:58:41;;;;;;;34.25;23.17;;;5.90;12.90;;;;;;5058592;28;20032;-77
2024/02/01 10:01:11;;;;;;;37.03;24.05;;;6.00;14.10;;;;;;5056585;28;20028;-77
2024/02/01 10:03:44;;;;;;;37.67;23.67;;;6.00;11.20;;;;;;5054678;28;20040;-77
2024/02/01 10:06:11;;;;;;;42.20;22.98;;;6.00;20.20;;;;;;5058592;28;20071;-77
2024/02/01 10:08:37;;;;;;;36.25;22.33;;;6.10;1.00;;;;;;5055413;28;20040;-77
2024/02/01 10:11:06;;;;;;;43.90;23.50;;;6.10;1.00;;;;;;5060354;28;20107;-76
2024/02/01 10:13:37;;;;;;;36.85;23.38;;;6.20;1.00;;;;;;5062101;28;20032;-77
2024/02/01 10:16:12;;;;;;;42.17;22.20;;;6.20;1.00;;;;;;5061890;28;20128;-73
2024/02/01 10:18:38;;;;;;;39.05;22.42;;;6.30;1.00;;;;;;5061698;28;20025;-73
2024/02/01 10:21:21;;;;;;;42.03;23.88;;;6.30;6.40;;;;;;5059236;28;20057;-74
2024/02/01 10:23:48;;;;;;;34.72;22.20;;;6.30;14.50;;;;;;5059251;28;20123;-73
2024/02/01 10:26:23;;;;;;;42.17;23.42;;;6.30;12.90;;;;;;5061229;28;20074;-74
2024/02/01 10:28:49;;;;;;;43.80;25.27;;;6.40;15.70;;;;;;5061322;28;20029;-74
2024/02/01 10:31:17;;;;;;;33.88;24.13;;;6.40;30.00;;;;;;5059135;28;20036;-74
2024/02/01 10:33:45;;;;;;;42.03;24.85;;;6.40;45.30;;;;;;5062131;28;20028;-73
2024/02/01 10:36:13;;;;;;;31.17;22.15;;;6.40;42.60;;;;;;5062597;28;20111;-73
2024/02/01 10:38:44;;;;;;;40.25;23.83;;;6.50;37.30;;;;;;5063451;28;20594;-74
2024/02/01 10:41:16;;;;;;;49.05;26.90;;;6.50;18.40;;;;;;5064339;28;20118;-73
2024/02/01 10:43:47;;;;;;;49.90;27.08;;;6.50;35.70;;;;;;5065356;28;20390;-73
2024/02/01 10:46:28;;;;;;;47.67;28.52;;;6.50;30.60;;;;;;5063075;28;20021;-74
2024/02/01 10:49:17;;;;;;;52.78;31.10;;;6.50;32.00;;;;;;5095132;28;20386;-74
2024/02/01 10:51:46;;;;;;;54.45;28.58;;;6.50;24.90;;;;;;5064291;28;20104;-74
2024/02/01 10:54:12;;;;;;;55.75;28.55;;;6.50;12.30;;;;;;5064400;28;20513;-73
2024/02/01 10:56:38;;;;;;;51.03;31.00;;;6.50;12.80;;;;;;5064041;28;20108;-73
2024/02/01 10:59:08;;;;;;;63.45;35.13;;;6.40;17.60;;;;;;5064909;28;20549;-73
2024/02/01 11:01:35;;;;;;;50.50;35.00;;;6.40;11.10;;;;;;5073146;28;20103;-73
2024/02/01 11:04:05;;;;;;;47.67;33.10;;;6.30;9.60;;;;;;5062492;28;20090;-73
2024/02/01 11:06:31;;;;;;;55.15;35.17;;;6.30;8.70;;;;;;5065270;28;20490;-74
2024/02/01 11:09:17;;;;;;;57.60;37.33;;;6.30;1.00;;;;;;5062690;28;20517;-74
2024/02/01 11:11:47;;;;;;;52.22;33.78;;;6.30;1.00;;;;;;5058355;28;20017;-73
2024/02/01 11:14:15;;;;;;;58.42;33.25;;;6.30;1.00;;;;;;5063714;28;20086;-73
2024/02/01 11:16:40;;;;;;;48.20;31.38;;;6.30;1.00;;;;;;5064401;28;20447;-73
2024/02/01 11:19:11;;;;;;;43.13;31.40;;;6.30;7.40;;;;;;5061841;28;20111;-73
2024/02/01 11:21:48;;;;;;;48.45;28.92;;;6.30;10.80;;;;;;5058383;28;20156;-73
2024/02/01 11:24:17;;;;;;;45.38;30.38;;;6.30;9.50;;;;;;5063474;28;20648;-73
2024/02/01 11:26:54;;;;;;;48.42;30.92;;;6.30;26.40;;;;;;5059576;28;20107;-73
2024/02/01 11:29:23;;;;;;;58.45;35.17;;;6.20;35.50;;;;;;5061317;28;20082;-73
2024/02/01 11:31:56;;;;;;;57.17;38.22;;;6.20;27.90;;;;;;5060442;28;20028;-73
2024/02/01 11:34:23;;;;;;;59.13;35.25;;;6.20;37.40;;;;;;5058674;28;20116;-73
2024/02/01 11:36:50;;;;;;;51.15;32.78;;;6.30;42.40;;;;;;5057872;28;20038;-73
2024/02/01 11:39:15;;;;;;;52.65;31.80;;;6.30;17.90;;;;;;5062444;28;20024;-76
2024/02/01 11:41:47;;;;;;;43.55;32.20;;;6.30;20.10;;;;;;5062927;28;20028;-77
2024/02/01 11:44:14;;;;;;;58.25;36.95;;;6.30;24.40;;;;;;5064321;28;20397;-77
2024/02/01 11:46:45;;;;;;;57.08;33.22;;;6.40;36.80;;;;;;5061052;28;20025;-77
2024/02/01 11:49:18;;;;;;;55.22;34.72;;;6.40;23.90;;;;;;5068599;28;20118;-77
2024/02/01 11:52:13;;;;;;;47.35;32.70;;;6.40;31.70;;;;;;5064361;28;20538;-76
2024/02/01 11:54:46;;;;;;;53.45;32.65;;;6.30;52.40;;;;;;5064716;28;20182;-77
2024/02/01 11:57:17;;;;;;;50.15;33.03;;;6.30;52.70;;;;;;5064436;28;20151;-77
2024/02/01 11:59:43;;;;;;;44.88;32.22;;;6.30;50.70;;;;;;5061786;28;20021;-77
2024/02/01 12:02:09;;;;;;;49.08;31.10;;;6.30;51.90;;;;;;5063509;28;20474;-77
2024/02/01 12:04:37;;;;;;;58.45;34.47;;;6.30;44.90;;;;;;5063420;28;20036;-77
2024/02/01 12:07:08;;;;;;;46.25;31.83;;;6.30;46.60;;;;;;5062487;28;20027;-77
2024/02/01 12:09:37;;;;;;;49.38;32.85;;;6.30;29.70;;;;;;5063804;28;20025;-77
2024/02/01 12:12:03;;;;;;;51.72;32.42;;;6.20;42.50;;;;;;5065373;28;20025;-77
2024/02/01 12:14:29;;;;;;;52.40;33.88;;;6.30;42.60;;;;;;5064258;28;20025;-77
2024/02/01 12:16:55;;;;;;;51.80;34.95;;;6.20;53.70;;;;;;5062308;28;20082;-77
2024/02/01 12:19:26;;;;;;;60.15;35.28;;;6.30;43.90;;;;;;5061061;28;20040;-77
2024/02/01 12:21:55;;;;;;;55.38;34.05;;;6.30;30.40;;;;;;5065271;28;20033;-77
2024/02/01 12:24:26;;;;;;;56.22;33.13;;;6.30;38.10;;;;;;5060650;28;20299;-77
2024/02/01 12:26:52;;;;;;;54.47;32.78;;;6.30;50.10;;;;;;5064876;28;20384;-77
2024/02/01 12:29:18;;;;;;;57.38;33.80;;;6.30;50.90;;;;;;5064330;28;20103;-77
2024/02/01 12:31:44;;;;;;;65.13;37.15;;;6.30;44.50;;;;;;5061671;28;20443;-77
2024/02/01 12:34:13;;;;;;;58.08;36.20;;;6.40;42.30;;;;;;5062181;28;20079;-77
2024/02/01 12:36:43;;;;;;;55.65;36.30;;;6.40;48.40;;;;;;5061379;28;20035;-77
2024/02/01 12:39:10;;;;;;;63.70;37.28;;;6.40;50.80;;;;;;5059319;28;20021;-77
2024/02/01 12:41:36;;;;;;;64.47;37.35;;;6.40;49.70;;;;;;5060929;28;20024;-77
2024/02/01 12:44:03;;;;;;;73.93;38.63;;;6.40;46.40;;;;;;5056414;28;20115;-77
2024/02/01 12:46:29;;;;;;;61.03;35.10;;;6.50;48.00;;;;;;5060032;28;20036;-77
2024/02/01 12:48:55;;;;;;;56.20;35.15;;;6.60;38.70;;;;;;5056921;28;20025;-77
2024/02/01 12:51:26;;;;;;;59.88;37.72;;;6.60;44.40;;;;;;5055662;28;20078;-77
2024/02/01 12:53:58;;;;;;;66.60;36.35;;;6.70;58.00;;;;;;5059833;28;20478;-76
2024/02/01 12:56:25;;;;;;;;;;;6.70;51.40;;;;;;5060215;28;20036;-77
2024/02/01 12:58:51;;;;;;;67.00;35.65;;;6.70;47.80;;;;;;5059738;28;19912;-77
2024/02/01 13:01:17;;;;;;;73.10;37.10;;;6.70;30.50;;;;;;5067529;28;20476;-77
2024/02/01 13:03:45;;;;;;;73.25;36.70;;;6.80;27.10;;;;;;5057963;28;20517;-77
2024/02/01 13:06:13;;;;;;;74.53;41.08;;;6.80;27.20;;;;;;5059340;28;20029;-76
2024/02/01 13:08:39;;;;;;;74.10;43.80;;;6.90;32.70;;;;;;5063056;28;20021;-77
2024/02/01 13:11:07;;;;;;;76.78;43.17;;;6.90;58.10;;;;;;5061772;28;20032;-76
2024/02/01 13:13:33;;;;;;;68.53;39.28;;;7.00;27.40;;;;;;5061882;28;20032;-76
2024/02/01 13:15:59;;;;;;;57.22;35.67;;;7.00;17.60;;;;;;5062406;28;20032;-77
2024/02/01 13:18:26;;;;;;;59.22;37.38;;;7.00;1.00;;;;;;5060180;28;20507;-77
2024/02/01 13:20:52;;;;;;;55.42;34.15;;;7.10;1.00;;;;;;5059428;28;20025;-77
2024/02/01 13:23:18;;;;;;;58.53;32.60;;;7.20;1.00;;;;;;5062219;28;20031;-76
2024/02/01 13:25:43;;;;;;;53.78;32.47;;;7.10;1.00;;;;;;5059876;28;20025;-77